Time;durP1;ratioP1;P1;durP2;ratioP2;P2;SDS_P1;SDS_P2;PMS_P1;PMS_P2;Temp;Humidity;BMP_temperature;BMP_pressure;BME280_temperature;BME280_humidity;BME280_pressure;Samples;Min_cycle;Max_cycle;Signal;HPM_P1;HPM_P2
2021/12/17 00:00:25;;;;;;;124.22;22.77;;;;;;;5.77;100.00;104153.13;5053225;28;20029;-75
2021/12/17 00:05:42;;;;;;;133.48;22.98;;;;;;;5.75;100.00;104158.44;5053109;28;20501;-72
2021/12/17 00:08:07;;;;;;;131.75;24.67;;;;;;;5.75;100.00;104160.22;5053401;28;20086;-72
2021/12/17 00:10:32;;;;;;;130.98;23.65;;;;;;;5.75;100.00;104160.22;5052838;28;20064;-73
2021/12/17 00:12:58;;;;;;;143.95;23.80;;;;;;;5.74;100.00;104158.47;5053192;28;20035;-73
2021/12/17 00:15:23;;;;;;;132.07;24.08;;;;;;;5.75;100.00;104170.78;5052622;28;20401;-72
2021/12/17 00:17:55;;;;;;;138.70;24.63;;;;;;;5.75;100.00;104176.09;5053257;28;20036;-72
2021/12/17 00:20:52;;;;;;;157.18;24.98;;;;;;;5.74;100.00;104169.03;5052750;28;20527;-72
2021/12/17 00:40:25;;;;;;;123.78;24.05;;;;;;;5.72;100.00;104165.53;5052963;28;20559;-71
2021/12/17 00:48:36;;;;;;;107.75;22.58;;;;;;;5.73;100.00;104167.28;5052568;28;20503;-72
2021/12/17 00:51:59;;;;;;;102.10;22.30;;;;;;;5.72;100.00;104165.53;5052333;28;20393;-72
2021/12/17 00:54:01;;;;;;;90.63;21.73;;;;;;;5.72;100.00;104166.44;5048162;28;20451;-73
2021/12/17 00:56:28;;;;;;;91.63;22.45;;;;;;;5.72;100.00;104163.78;5052065;28;20087;-72
2021/12/17 00:58:54;;;;;;;102.75;24.45;;;;;;;5.73;100.00;104173.47;5052377;28;20029;-73
2021/12/17 01:01:21;;;;;;;101.00;24.90;;;;;;;5.72;100.00;104169.06;5052151;28;20075;-73
2021/12/17 01:03:47;;;;;;;101.88;27.42;;;;;;;5.73;100.00;104165.53;5051762;28;20094;-73
2021/12/17 01:06:13;;;;;;;101.63;26.83;;;;;;;5.74;100.00;104164.63;5052636;28;20115;-72
2021/12/17 01:08:38;;;;;;;105.78;25.38;;;;;;;5.74;100.00;104161.13;5050680;28;20480;-72
2021/12/17 01:11:05;;;;;;;107.78;25.65;;;;;;;5.74;100.00;104161.97;5052562;28;20029;-73
2021/12/17 01:13:32;;;;;;;88.55;23.25;;;;;;;5.74;100.00;104161.97;5051712;28;20036;-73
2021/12/17 01:15:58;;;;;;;111.95;27.75;;;;;;;5.75;100.00;104157.59;5052035;28;20040;-72
2021/12/17 01:18:35;;;;;;;105.53;26.98;;;;;;;5.75;100.00;104158.44;5052492;28;20392;-72
2021/12/17 01:21:21;;;;;;;97.07;26.10;;;;;;;5.74;100.00;104150.53;5052239;28;20033;-72
2021/12/17 01:42:24;;;;;;;103.50;28.80;;;;;;;5.78;100.00;104166.31;5051929;28;20396;-72
2021/12/17 01:44:49;;;;;;;103.25;28.23;;;;;;;5.80;100.00;104168.94;5051345;28;20086;-72
2021/12/17 01:47:15;;;;;;;117.38;29.63;;;;;;;5.79;100.00;104168.06;5051704;28;20522;-72
2021/12/17 02:00:27;;;;;;;119.60;31.77;;;;;;;5.83;100.00;104163.59;5056092;28;20041;-72
2021/12/17 02:02:56;;;;;;;124.78;32.75;;;;;;;5.83;100.00;104163.59;5055475;28;20056;-72
2021/12/17 02:05:21;;;;;;;114.32;29.55;;;;;;;5.85;100.00;104163.56;5055949;28;20044;-72
2021/12/17 02:07:50;;;;;;;111.50;31.90;;;;;;;5.87;100.00;104156.47;5055143;28;20041;-72
2021/12/17 02:13:09;;;;;;;118.80;32.28;;;;;;;5.89;100.00;104159.97;5055051;28;20044;-73
2021/12/17 02:29:46;;;;;;;136.23;36.45;;;;;;;6.01;100.00;104146.56;5055130;28;20037;-72
2021/12/17 02:32:01;;;;;;;126.70;36.67;;;;;;;6.03;100.00;104152.72;5054311;28;20032;-72
2021/12/17 02:37:18;;;;;;;132.25;36.67;;;;;;;6.02;100.00;104150.06;5055318;28;20067;-73
2021/12/17 02:47:30;;;;;;;143.07;39.95;;;;;;;6.02;100.00;104158.00;5055171;28;20129;-72
2021/12/17 02:49:56;;;;;;;126.63;36.25;;;;;;;6.00;100.00;104158.91;5054285;28;20116;-73
2021/12/17 02:52:26;;;;;;;138.45;40.35;;;;;;;6.03;100.00;104162.41;5054808;28;20032;-72
2021/12/17 02:54:52;;;;;;;155.95;43.97;;;;;;;6.02;100.00;104164.19;5054436;28;20035;-72
2021/12/17 02:57:18;;;;;;;149.05;45.45;;;;;;;6.02;100.00;104164.19;5055089;28;20041;-72
2021/12/17 02:59:43;;;;;;;151.73;51.65;;;;;;;6.02;100.00;104156.25;5054315;28;20029;-72
2021/12/17 03:02:10;;;;;;;147.80;52.20;;;;;;;6.03;100.00;104151.81;5054682;28;20398;-73
2021/12/17 03:04:39;;;;;;;158.48;55.55;;;;;;;6.01;100.00;104154.50;5054465;28;20040;-73
2021/12/17 03:07:05;;;;;;;144.73;51.10;;;;;;;6.00;100.00;104145.69;5054232;28;20334;-72
2021/12/17 03:12:26;;;;;;;155.23;53.80;;;;;;;6.00;100.00;104156.28;5054922;28;20043;-72
2021/12/17 03:15:01;;;;;;;158.65;54.28;;;;;;;6.00;100.00;104151.00;5053872;28;20037;-73
2021/12/17 03:25:46;;;;;;;127.30;45.90;;;;;;;6.01;100.00;104141.28;5053928;28;20075;-73
2021/12/17 03:28:11;;;;;;;130.25;48.00;;;;;;;6.01;100.00;104146.56;5054360;28;20029;-72
2021/12/17 03:30:37;;;;;;;134.25;50.05;;;;;;;6.00;100.00;104145.69;5054177;28;20036;-72
2021/12/17 03:33:03;;;;;;;131.30;47.03;;;;;;;6.00;100.00;104148.34;5053399;28;20032;-73
2021/12/17 03:35:28;;;;;;;107.28;39.00;;;;;;;6.02;100.00;104142.13;5052394;28;20453;-72
2021/12/17 03:37:53;;;;;;;92.93;34.17;;;;;;;6.00;100.00;104145.69;5053430;28;20036;-73
2021/12/17 03:40:20;;;;;;;89.63;32.33;;;;;;;5.98;100.00;104152.78;5054084;28;20162;-72
2021/12/17 03:42:49;;;;;;;98.38;35.20;;;;;;;5.97;100.00;104155.44;5053523;28;20033;-73
2021/12/17 03:45:15;;;;;;;105.40;35.72;;;;;;;5.96;100.00;104149.25;5054032;28;20029;-72
2021/12/17 03:47:41;;;;;;;100.68;31.38;;;;;;;5.96;100.00;104153.69;5053652;28;20481;-72
2021/12/17 03:50:07;;;;;;;86.60;29.38;;;;;;;5.95;100.00;104149.28;5053217;28;20055;-72
2021/12/17 03:52:33;;;;;;;69.75;24.70;;;;;;;5.96;100.00;104148.41;5053416;28;20033;-73
2021/12/17 03:54:58;;;;;;;75.78;24.80;;;;;;;5.94;100.00;104147.53;5053129;28;20033;-73
2021/12/17 03:57:24;;;;;;;66.97;23.15;;;;;;;5.92;100.00;104158.13;5053689;28;20123;-72
2021/12/17 03:59:49;;;;;;;77.65;24.98;;;;;;;5.90;100.00;104152.03;5053171;28;20327;-73
2021/12/17 04:02:15;;;;;;;77.47;26.75;;;;;;;5.89;100.00;104154.69;5053605;28;20034;-73
2021/12/17 04:04:40;;;;;;;72.50;26.70;;;;;;;5.89;100.00;104154.69;5053621;28;20114;-73
2021/12/17 04:07:06;;;;;;;77.07;28.38;;;;;;;5.89;100.00;104155.56;5053017;28;20699;-73
2021/12/17 04:09:32;;;;;;;92.88;29.85;;;;;;;5.89;100.00;104163.47;5053315;28;20120;-72
2021/12/17 04:12:00;;;;;;;97.55;28.70;;;;;;;5.89;100.00;104162.63;5052887;28;20112;-72
2021/12/17 04:14:34;;;;;;;107.45;30.75;;;;;;;5.89;100.00;104163.47;5051919;28;20060;-72
2021/12/17 04:17:05;;;;;;;91.53;28.58;;;;;;;5.89;100.00;104163.47;5052788;28;20040;-73
2021/12/17 04:19:31;;;;;;;115.13;32.30;;;;;;;5.90;100.00;104173.16;5052260;28;20033;-72
2021/12/17 04:21:56;;;;;;;115.13;31.45;;;;;;;5.89;100.00;104160.84;5052701;28;20036;-72
2021/12/17 04:24:22;;;;;;;120.20;32.50;;;;;;;5.89;100.00;104167.91;5053197;28;20473;-72
2021/12/17 04:26:47;;;;;;;139.13;34.03;;;;;;;5.89;100.00;104167.91;5053039;28;20029;-72
2021/12/17 04:29:13;;;;;;;137.80;35.70;;;;;;;5.87;100.00;104167.94;5051748;28;20104;-71
2021/12/17 04:31:38;;;;;;;123.47;34.95;;;;;;;5.85;100.00;104169.72;5052709;28;20036;-72
2021/12/17 04:34:04;;;;;;;115.80;35.20;;;;;;;5.85;100.00;104171.50;5052080;28;20055;-72
2021/12/17 04:36:32;;;;;;;103.45;33.60;;;;;;;5.83;100.00;104171.53;5052468;28;20393;-72
2021/12/17 04:38:59;;;;;;;115.35;33.95;;;;;;;5.81;100.00;104171.53;5066249;28;20040;-72
2021/12/17 04:57:20;;;;;;;99.35;32.72;;;;;;;5.77;100.00;104169.84;5072013;28;20557;-72
2021/12/17 04:59:45;;;;;;;104.05;32.20;;;;;;;5.76;100.00;104170.78;5072303;28;20078;-73
2021/12/17 05:02:11;;;;;;;92.63;30.73;;;;;;;5.76;100.00;104162.84;5072095;28;20029;-72
2021/12/17 05:04:37;;;;;;;88.15;30.95;;;;;;;5.76;100.00;104170.78;5072160;28;20436;-72
2021/12/17 05:07:06;;;;;;;102.65;32.72;;;;;;;5.76;100.00;104165.47;5071415;28;20533;-73
2021/12/17 05:09:44;;;;;;;105.65;33.20;;;;;;;5.77;100.00;104166.34;5071933;28;20549;-72
2021/12/17 05:20:42;;;;;;;93.68;30.83;;;;;;;5.77;100.00;104161.06;5071465;28;20494;-73
2021/12/17 05:23:08;;;;;;;102.55;30.52;;;;;;;5.78;100.00;104166.31;5071521;28;20132;-73
2021/12/17 05:25:33;;;;;;;104.53;30.38;;;;;;;5.78;100.00;104160.16;5071877;28;20519;-72
2021/12/17 05:28:02;;;;;;;98.95;30.65;;;;;;;5.78;100.00;104160.16;5071566;28;20090;-78
2021/12/17 05:30:32;;;;;;;103.85;29.58;;;;;;;5.78;100.00;104154.88;5071650;28;20063;-73
2021/12/17 05:32:58;;;;;;;105.07;30.27;;;;;;;5.77;100.00;104154.00;5071478;28;20111;-79
2021/12/17 05:35:25;;;;;;;98.63;29.25;;;;;;;5.78;100.00;104149.59;5071735;28;20060;-73
2021/12/17 05:37:50;;;;;;;103.07;28.67;;;;;;;5.78;100.00;104153.09;5071634;28;20032;-73
2021/12/17 05:40:16;;;;;;;93.75;27.60;;;;;;;5.78;100.00;104152.25;5071179;28;20074;-73
2021/12/17 05:42:42;;;;;;;92.60;28.08;;;;;;;5.78;100.00;104158.38;5071032;28;20029;-73
2021/12/17 05:45:20;;;;;;;97.63;27.48;;;;;;;5.79;100.00;104167.19;5071115;28;20035;-72
2021/12/17 05:47:46;;;;;;;92.53;27.83;;;;;;;5.78;100.00;104161.03;5071625;28;20029;-73
2021/12/17 05:50:11;;;;;;;95.00;27.05;;;;;;;5.79;100.00;104169.81;5069868;28;20056;-74
2021/12/17 05:52:36;;;;;;;98.80;27.45;;;;;;;5.78;100.00;104165.47;5071687;28;20028;-74
2021/12/17 05:55:02;;;;;;;96.38;29.13;;;;;;;5.79;100.00;104159.25;5071245;28;20506;-78
2021/12/17 05:57:27;;;;;;;95.13;26.58;;;;;;;5.79;100.00;104172.47;5071612;28;20041;-72
2021/12/17 05:59:53;;;;;;;82.22;25.65;;;;;;;5.78;100.00;104176.03;5071877;28;20040;-72
2021/12/17 06:02:19;;;;;;;85.32;25.38;;;;;;;5.79;100.00;104183.03;5070817;28;20028;-72
2021/12/17 06:04:45;;;;;;;86.47;24.75;;;;;;;5.79;100.00;104183.03;5071711;28;20123;-71
2021/12/17 06:07:10;;;;;;;82.57;24.08;;;;;;;5.78;100.00;104184.81;5071071;28;20369;-73
2021/12/17 06:09:36;;;;;;;95.43;23.27;;;;;;;5.78;100.00;104176.03;5071748;28;20029;-71
2021/12/17 06:12:01;;;;;;;82.40;22.65;;;;;;;5.79;100.00;104175.09;5071443;28;20064;-72
2021/12/17 06:14:27;;;;;;;86.25;22.63;;;;;;;5.78;100.00;104183.97;5070793;28;20033;-71
2021/12/17 06:16:52;;;;;;;88.07;21.30;;;;;;;5.79;100.00;104185.69;5053426;28;20033;-72
2021/12/17 06:19:19;;;;;;;80.03;20.85;;;;;;;5.79;100.00;104188.31;5070854;28;20029;-71
2021/12/17 06:21:47;;;;;;;78.50;21.27;;;;;;;5.79;100.00;104180.41;5071309;28;20029;-72
2021/12/17 06:24:12;;;;;;;80.70;21.60;;;;;;;5.80;100.00;104192.72;5070641;28;20068;-73
2021/12/17 06:26:37;;;;;;;79.65;21.35;;;;;;;5.79;100.00;104191.84;5071742;28;20060;-73
2021/12/17 06:29:03;;;;;;;82.88;19.52;;;;;;;5.80;100.00;104192.72;5071220;28;20043;-72
2021/12/17 06:31:28;;;;;;;82.53;18.48;;;;;;;5.79;100.00;104194.50;5070403;28;20036;-72
2021/12/17 06:33:54;;;;;;;79.60;18.70;;;;;;;5.80;100.00;104195.38;5070875;28;20079;-73
2021/12/17 06:36:19;;;;;;;80.63;18.73;;;;;;;5.79;100.00;104193.59;5070925;28;20489;-73
2021/12/17 06:38:44;;;;;;;75.00;18.90;;;;;;;5.80;100.00;104203.28;5071091;28;20116;-74
2021/12/17 06:41:10;;;;;;;84.45;19.27;;;;;;;5.79;100.00;104202.44;5070083;28;20031;-74
2021/12/17 06:43:40;;;;;;;88.53;20.00;;;;;;;5.80;100.00;104200.66;5074797;28;20127;-72
2021/12/17 06:46:22;;;;;;;82.05;20.33;;;;;;;5.79;100.00;104205.06;5074642;28;20025;-72
2021/12/17 06:48:51;;;;;;;93.43;19.83;;;;;;;5.80;100.00;104206.78;5074817;28;20032;-74
2021/12/17 07:00:13;;;;;;;99.05;21.30;;;;;;;5.80;100.00;104198.88;5065553;28;20045;-73
2021/12/17 07:10:39;;;;;;;91.25;21.02;;;;;;;5.80;100.00;104200.66;5072207;28;20131;-73
2021/12/17 07:34:15;;;;;;;104.20;20.75;;;;;;;5.80;100.00;104222.66;5074094;28;20048;-72
2021/12/17 07:36:56;;;;;;;97.00;20.15;;;;;;;5.80;100.00;104219.16;5073989;28;20028;-73
2021/12/17 07:39:22;;;;;;;97.25;21.67;;;;;;;5.81;100.00;104223.53;5077340;28;20068;-72
2021/12/17 07:41:47;;;;;;;92.00;19.48;;;;;;;5.80;100.00;104219.16;5076286;28;20429;-71
2021/12/17 07:44:13;;;;;;;99.57;19.92;;;;;;;5.81;100.00;104220.91;5075738;28;20033;-72
2021/12/17 07:46:38;;;;;;;99.85;21.95;;;;;;;5.81;100.00;104223.53;5072878;28;20028;-72
2021/12/17 07:49:04;;;;;;;93.90;20.63;;;;;;;5.82;100.00;104231.44;5073259;28;20400;-72
2021/12/17 07:51:29;;;;;;;100.50;21.48;;;;;;;5.81;100.00;104232.34;5073182;28;20024;-72
2021/12/17 07:53:56;;;;;;;99.85;20.75;;;;;;;5.82;100.00;104235.84;5073633;28;20032;-72
2021/12/17 07:56:26;;;;;;;97.55;20.60;;;;;;;5.82;100.00;104234.09;5072985;28;20036;-72
2021/12/17 07:58:52;;;;;;;103.53;20.83;;;;;;;5.83;100.00;104233.16;5073562;28;20139;-72
2021/12/17 08:01:17;;;;;;;107.43;20.17;;;;;;;5.84;100.00;104236.69;5073064;28;20461;-77
2021/12/17 08:03:43;;;;;;;80.47;19.13;;;;;;;5.85;100.00;104240.22;5073151;28;20043;-72
2021/12/17 08:06:10;;;;;;;81.50;18.90;;;;;;;5.85;100.00;104248.13;5073102;28;20043;-71
2021/12/17 08:08:35;;;;;;;82.25;18.95;;;;;;;5.88;100.00;104256.00;5072409;28;20028;-72
2021/12/17 08:11:01;;;;;;;89.57;19.02;;;;;;;5.89;100.00;104258.63;5073221;28;20161;-72
2021/12/17 08:13:30;;;;;;;82.20;19.25;;;;;;;5.89;100.00;104249.84;5072112;28;20511;-73
2021/12/17 08:16:15;;;;;;;93.20;19.38;;;;;;;5.90;100.00;104249.81;5072972;28;20028;-72
2021/12/17 08:26:56;;;;;;;83.18;18.23;;;;;;;5.96;100.00;104255.00;5069788;28;20096;-71
2021/12/17 08:31:59;;;;;;;101.07;20.55;;;;;;;5.99;100.00;104241.75;5072665;28;20492;-73
2021/12/17 08:34:25;;;;;;;93.47;20.13;;;;;;;6.01;100.00;104244.38;5071933;28;20105;-74
2021/12/17 08:36:51;;;;;;;94.40;20.17;;;;;;;6.03;100.00;104236.41;5072455;28;20032;-72
2021/12/17 08:39:16;;;;;;;89.35;20.02;;;;;;;6.05;100.00;104237.28;5072620;28;20054;-73
2021/12/17 08:41:42;;;;;;;92.38;20.90;;;;;;;6.07;100.00;104238.13;5072016;28;20048;-73
2021/12/17 08:44:08;;;;;;;105.95;22.35;;;;;;;6.10;100.00;104232.78;5072458;28;20036;-74
2021/12/17 08:46:35;;;;;;;104.47;23.05;;;;;;;6.13;100.00;104232.72;5071856;28;20024;-73
2021/12/17 08:49:01;;;;;;;97.68;21.55;;;;;;;6.16;100.00;104238.81;5072228;28;20043;-73
2021/12/17 08:51:26;;;;;;;101.43;21.70;;;;;;;6.21;100.00;104232.56;5071604;28;20036;-79
2021/12/17 08:53:52;;;;;;;107.93;22.70;;;;;;;6.25;100.00;104231.63;5072147;28;20123;-73
2021/12/17 08:56:22;;;;;;;88.15;20.40;;;;;;;6.28;100.00;104232.44;5072214;28;20111;-72
2021/12/17 08:58:51;;;;;;;88.57;21.67;;;;;;;6.32;100.00;104220.91;5071471;28;20105;-72
2021/12/17 09:01:16;;;;;;;103.47;21.73;;;;;;;6.35;100.00;104228.78;5071867;28;20393;-72
2021/12/17 09:03:41;;;;;;;87.88;18.88;;;;;;;6.40;100.00;104238.41;5071412;28;20036;-71
2021/12/17 09:06:07;;;;;;;88.15;19.90;;;;;;;6.42;100.00;104233.94;5070885;28;20040;-73
2021/12/17 09:08:32;;;;;;;84.90;18.90;;;;;;;6.45;100.00;104239.19;5072399;28;20115;-72
2021/12/17 09:10:59;;;;;;;82.38;18.33;;;;;;;6.46;100.00;104244.44;5072471;28;20078;-72
2021/12/17 09:13:26;;;;;;;76.35;19.27;;;;;;;6.48;100.00;104242.66;5072673;28;20032;-73
2021/12/17 09:16:06;;;;;;;81.60;18.83;;;;;;;6.50;100.00;104240.84;5072457;28;20036;-72
2021/12/17 09:18:32;;;;;;;75.60;17.75;;;;;;;6.54;100.00;104241.69;5072034;28;20071;-72
2021/12/17 09:20:57;;;;;;;79.95;18.55;;;;;;;6.58;100.00;104234.53;5072155;28;20033;-72
2021/12/17 09:23:23;;;;;;;79.32;19.25;;;;;;;6.60;100.00;104230.97;5072168;28;20037;-72
2021/12/17 09:25:49;;;;;;;71.28;17.10;;;;;;;6.63;100.00;104240.63;5071828;28;20499;-73
2021/12/17 09:28:14;;;;;;;75.57;17.85;;;;;;;6.65;100.00;104242.31;5072182;28;20063;-72
2021/12/17 09:30:39;;;;;;;68.75;16.88;;;;;;;6.71;100.00;104246.63;5071726;28;20035;-73
2021/12/17 09:33:05;;;;;;;66.13;17.02;;;;;;;6.74;100.00;104248.34;5072067;28;20077;-72
2021/12/17 09:35:30;;;;;;;78.03;17.10;;;;;;;6.76;100.00;104249.19;5071267;28;20123;-74
2021/12/17 09:37:56;;;;;;;63.97;15.60;;;;;;;6.75;100.00;104253.63;5071816;28;20064;-73
2021/12/17 09:40:21;;;;;;;67.97;16.25;;;;;;;6.79;100.00;104260.59;5072144;28;20039;-72
2021/12/17 09:42:47;;;;;;;67.75;16.52;;;;;;;6.83;100.00;104256.09;5071569;28;20464;-73
2021/12/17 09:45:15;;;;;;;54.15;15.57;;;;;;;6.86;100.00;104259.53;5071836;28;20032;-74
2021/12/17 09:47:42;;;;;;;53.30;14.77;;;;;;;6.91;100.00;104267.38;5071376;28;20032;-70
2021/12/17 09:50:09;;;;;;;52.63;14.20;;;;;;;6.95;100.00;104266.44;5071706;28;20120;-73
2021/12/17 09:52:34;;;;;;;47.45;13.38;;;;;;;6.96;100.00;104276.13;5071552;28;20044;-74
2021/12/17 09:55:01;;;;;;;46.92;13.50;;;;;;;6.99;100.00;104273.41;5072137;28;20033;-73
2021/12/17 09:57:27;;;;;;;54.75;13.50;;;;;;;6.98;100.00;104274.31;5071940;28;20051;-73
2021/12/17 09:59:56;;;;;;;48.40;14.02;;;;;;;6.99;100.00;104275.19;5071463;28;20040;-74
2021/12/17 10:02:22;;;;;;;45.03;12.57;;;;;;;7.00;100.00;104279.56;5071348;28;20558;-74
2021/12/17 10:04:47;;;;;;;42.85;12.63;;;;;;;7.00;100.00;104276.94;5070791;28;20029;-73
2021/12/17 10:07:16;;;;;;;38.97;12.57;;;;;;;6.99;100.00;104278.72;5071628;28;20030;-74
2021/12/17 10:10:16;;;;;;;39.03;12.98;;;;;;;7.00;100.00;104283.13;5071233;28;20060;-74
2021/12/17 10:12:41;;;;;;;41.78;12.98;;;;;;;7.01;100.00;104283.97;5048195;28;20045;-74
2021/12/17 10:15:18;;;;;;;41.05;13.15;;;;;;;7.03;100.00;104291.00;5071919;28;20059;-74
2021/12/17 10:17:59;;;;;;;43.80;14.38;;;;;;;7.05;100.00;104290.97;5074285;28;20028;-74
2021/12/17 10:20:26;;;;;;;47.35;13.80;;;;;;;7.06;100.00;104296.22;5075598;28;20025;-74
2021/12/17 10:23:01;;;;;;;41.20;13.32;;;;;;;7.06;100.00;104296.22;5074582;28;20042;-74
2021/12/17 10:25:28;;;;;;;41.67;13.48;;;;;;;7.06;100.00;104293.56;5074939;28;20029;-73
2021/12/17 10:27:59;;;;;;;45.20;13.27;;;;;;;7.06;100.00;104292.69;5074568;28;20525;-74
2021/12/17 10:30:26;;;;;;;38.72;13.05;;;;;;;7.06;100.00;104293.56;5075302;28;20064;-74
2021/12/17 10:32:55;;;;;;;42.30;12.88;;;;;;;7.05;100.00;104291.81;5074139;28;20060;-74
2021/12/17 10:35:24;;;;;;;39.90;12.93;;;;;;;7.06;100.00;104292.69;5073308;28;20052;-72
2021/12/17 10:38:11;;;;;;;41.70;12.85;;;;;;;7.07;100.00;104300.59;5074104;28;20039;-73
2021/12/17 10:40:39;;;;;;;43.63;13.18;;;;;;;7.08;100.00;104301.50;5074290;28;20037;-72
2021/12/17 10:43:14;;;;;;;40.35;13.43;;;;;;;7.07;100.00;104303.25;5074662;28;20464;-72
2021/12/17 10:45:45;;;;;;;37.80;12.20;;;;;;;7.06;100.00;104298.88;5074536;28;20024;-74
2021/12/17 10:50:54;;;;;;;37.53;12.43;;;;;;;7.03;100.00;104300.69;5074308;28;20036;-73
2021/12/17 10:53:26;;;;;;;41.30;12.35;;;;;;;7.02;100.00;104294.53;5074855;28;20111;-73
2021/12/17 10:55:54;;;;;;;43.13;13.35;;;;;;;7.01;100.00;104292.78;5074165;28;20035;-73
2021/12/17 10:58:19;;;;;;;35.10;12.60;;;;;;;7.02;100.00;104285.72;5074391;28;20060;-73
2021/12/17 11:01:02;;;;;;;39.17;12.80;;;;;;;7.00;100.00;104293.69;5056162;28;20052;-73
2021/12/17 11:03:27;;;;;;;38.30;13.13;;;;;;;7.02;100.00;104291.88;5074385;28;20036;-73
2021/12/17 11:05:53;;;;;;;43.38;12.43;;;;;;;7.04;100.00;104291.84;5074749;28;20064;-77
2021/12/17 11:08:28;;;;;;;35.72;13.55;;;;;;;7.06;100.00;104293.56;5074572;28;20040;-76
2021/12/17 11:10:58;;;;;;;40.78;13.02;;;;;;;7.06;100.00;104293.56;5074000;28;20383;-73
2021/12/17 11:13:24;;;;;;;37.95;13.73;;;;;;;7.06;100.00;104293.56;5074342;28;20031;-72
2021/12/17 11:15:51;;;;;;;38.08;14.02;;;;;;;7.06;100.00;104287.38;5074107;28;20032;-73
2021/12/17 11:18:18;;;;;;;35.88;13.48;;;;;;;7.06;100.00;104290.03;5074689;28;20031;-73
2021/12/17 11:20:44;;;;;;;42.92;14.27;;;;;;;7.03;100.00;104280.41;5073917;28;20139;-77
2021/12/17 11:23:13;;;;;;;37.08;13.52;;;;;;;7.06;100.00;104290.03;5074193;28;20032;-72
2021/12/17 11:25:41;;;;;;;41.90;13.38;;;;;;;7.06;100.00;104285.63;5073887;28;20075;-74
2021/12/17 11:28:09;;;;;;;41.25;14.68;;;;;;;7.07;100.00;104284.72;5073146;28;20085;-74
2021/12/17 11:30:38;;;;;;;40.17;12.90;;;;;;;7.09;100.00;104281.16;5073503;28;20029;-72
2021/12/17 11:33:04;;;;;;;40.95;12.98;;;;;;;7.07;100.00;104282.06;5072018;28;20078;-73
2021/12/17 11:35:31;;;;;;;34.72;12.48;;;;;;;7.05;100.00;104268.00;5073725;28;20526;-72
2021/12/17 11:38:00;;;;;;;29.30;11.55;;;;;;;7.06;100.00;104272.38;5072896;28;20036;-73
2021/12/17 11:40:31;;;;;;;33.40;11.80;;;;;;;7.06;100.00;104268.84;5073523;28;20063;-71
2021/12/17 11:43:18;;;;;;;33.53;11.88;;;;;;;7.03;100.00;104277.75;5073041;28;20032;-72
2021/12/17 11:45:45;;;;;;;32.80;11.57;;;;;;;7.01;100.00;104274.25;5073950;28;20052;-71
2021/12/17 11:48:19;;;;;;;35.05;13.15;;;;;;;7.01;100.00;104279.53;5073345;28;20036;-72
2021/12/17 11:50:59;;;;;;;29.38;10.95;;;;;;;7.02;100.00;104281.28;5073868;28;20469;-71
2021/12/17 11:53:25;;;;;;;27.20;11.30;;;;;;;7.02;100.00;104268.06;5073656;28;20039;-73
2021/12/17 11:55:59;;;;;;;27.10;10.68;;;;;;;7.01;100.00;104271.59;5073551;28;20036;-74
2021/12/17 11:58:48;;;;;;;27.63;11.15;;;;;;;7.01;100.00;104271.59;5073615;28;20099;-73
2021/12/17 12:01:52;;;;;;;25.50;9.95;;;;;;;7.02;100.00;104264.53;5073006;28;20037;-71
2021/12/17 12:04:37;;;;;;;23.38;9.27;;;;;;;7.00;100.00;104263.69;5074032;28;20129;-72
2021/12/17 12:07:07;;;;;;;20.25;8.20;;;;;;;7.00;100.00;104269.88;5073039;28;20048;-72
2021/12/17 12:10:08;;;;;;;18.67;7.93;;;;;;;7.01;100.00;104270.75;5073162;28;20028;-71
2021/12/17 12:12:33;;;;;;;21.15;8.32;;;;;;;7.00;100.00;104271.63;5073500;28;20119;-71
2021/12/17 12:15:17;;;;;;;18.10;7.85;;;;;;;7.02;100.00;104272.50;5072822;28;20115;-71
2021/12/17 12:17:58;;;;;;;19.98;7.78;;;;;;;7.04;100.00;104270.66;5073368;28;20029;-70
2021/12/17 12:20:48;;;;;;;16.50;6.70;;;;;;;7.04;100.00;104275.97;5072920;28;20421;-70
2021/12/17 12:23:16;;;;;;;19.80;7.22;;;;;;;7.04;100.00;104284.78;5072348;28;20472;-70
2021/12/17 12:25:42;;;;;;;17.00;7.55;;;;;;;7.04;100.00;104273.31;5073055;28;20035;-71
2021/12/17 12:28:07;;;;;;;14.05;7.05;;;;;;;7.02;100.00;104273.34;5072521;28;20384;-71
2021/12/17 12:30:38;;;;;;;17.73;7.93;;;;;;;7.02;100.00;104280.44;5073129;28;20082;-71
2021/12/17 12:33:06;;;;;;;14.17;6.93;;;;;;;6.99;100.00;104280.50;5072496;28;20032;-73
2021/12/17 12:35:32;;;;;;;20.35;10.18;;;;;;;6.96;100.00;104281.44;5072615;28;20089;-73
2021/12/17 12:38:15;;;;;;;13.85;7.72;;;;;;;6.95;100.00;104281.47;5072918;28;20036;-73
2021/12/17 12:40:45;;;;;;;12.43;6.43;;;;;;;6.93;100.00;104288.56;5072288;28;20039;-73
2021/12/17 12:43:31;;;;;;;11.52;6.18;;;;;;;6.89;100.00;104287.75;5072205;28;20024;-72
2021/12/17 12:45:57;;;;;;;13.68;6.10;;;;;;;6.88;100.00;104283.34;5071981;28;20117;-72
2021/12/17 12:48:31;;;;;;;9.00;5.00;;;;;;;6.87;100.00;104277.19;5072750;28;20029;-72
2021/12/17 12:51:17;;;;;;;7.97;5.07;;;;;;;6.86;100.00;104285.16;5072331;28;20024;-74
2021/12/17 12:54:06;;;;;;;8.70;4.72;;;;;;;6.85;100.00;104279.00;5072254;28;20299;-74
2021/12/17 12:56:32;;;;;;;9.07;5.05;;;;;;;6.84;100.00;104277.25;5071889;28;20452;-73
2021/12/17 12:58:57;;;;;;;7.32;4.57;;;;;;;6.82;100.00;104264.94;5072599;28;20036;-80
2021/12/17 13:01:22;;;;;;;8.98;4.93;;;;;;;6.81;100.00;104271.16;5072617;28;20100;-75
2021/12/17 13:03:48;;;;;;;8.73;4.70;;;;;;;6.78;100.00;104269.44;5072696;28;20025;-77
2021/12/17 13:06:17;;;;;;;10.13;5.10;;;;;;;6.76;100.00;104263.28;5071798;28;20157;-74
2021/12/17 13:08:43;;;;;;;8.23;5.28;;;;;;;6.77;100.00;104258.88;5072619;28;20054;-76
2021/12/17 13:11:09;;;;;;;8.15;5.30;;;;;;;6.74;100.00;104256.28;5072662;28;20029;-76
2021/12/17 13:14:17;;;;;;;10.60;4.95;;;;;;;6.74;100.00;104251.00;5072765;28;20070;-74
2021/12/17 13:22:01;;;;;;;154.30;103.47;;;;;;;6.71;100.00;104254.56;5072402;28;20455;-74
2021/12/17 13:24:36;;;;;;;45.83;28.38;;;;;;;6.69;100.00;104251.09;5072585;28;20037;-74
2021/12/17 13:27:11;;;;;;;111.57;79.53;;;;;;;6.68;100.00;104249.34;5071921;28;20536;-77
2021/12/17 13:29:39;;;;;;;18.92;13.63;;;;;;;6.67;100.00;104245.84;5071026;28;20031;-78
2021/12/17 13:32:09;;;;;;;5.25;4.57;;;;;;;6.67;100.00;104248.47;5032242;28;20025;-77
2021/12/17 13:34:37;;;;;;;7.18;3.65;;;;;;;6.66;100.00;104238.78;5060598;28;20056;-77
2021/12/17 13:37:13;;;;;;;4.65;3.10;;;;;;;6.67;100.00;104237.91;5068660;28;20098;-76
2021/12/17 13:39:58;;;;;;;3.67;2.80;;;;;;;6.67;100.00;104237.00;5072195;28;20034;-76
2021/12/17 13:42:27;;;;;;;2.90;2.47;;;;;;;6.68;100.00;104244.03;5071406;28;20032;-76
2021/12/17 13:45:01;;;;;;;3.53;3.10;;;;;;;6.70;100.00;104240.47;5061394;28;20033;-76
2021/12/17 13:47:34;;;;;;;4.47;3.30;;;;;;;6.73;100.00;104239.53;5070933;28;20033;-76
2021/12/17 13:50:02;;;;;;;3.95;3.42;;;;;;;6.77;100.00;104232.41;5072376;28;20024;-76
2021/12/17 13:52:32;;;;;;;4.43;3.53;;;;;;;6.81;100.00;104247.34;5075799;28;20028;-76
2021/12/17 13:55:00;;;;;;;4.00;3.60;;;;;;;6.87;100.00;104239.25;5076391;28;20418;-75
2021/12/17 13:57:28;;;;;;;5.45;4.03;;;;;;;6.92;100.00;104240.03;5075945;28;20024;-76
2021/12/17 14:00:24;;;;;;;4.68;3.90;;;;;;;6.96;100.00;104244.34;5076324;28;20043;-76
2021/12/17 14:02:53;;;;;;;5.15;3.88;;;;;;;6.98;100.00;104247.84;5076073;28;20060;-76
2021/12/17 14:05:26;;;;;;;4.97;3.67;;;;;;;6.99;100.00;104256.66;5075451;28;20419;-76
2021/12/17 14:07:54;;;;;;;4.63;3.25;;;;;;;6.99;100.00;104251.38;5075787;28;20035;-76
2021/12/17 14:10:32;;;;;;;4.45;3.60;;;;;;;6.99;100.00;104248.72;5075429;28;20127;-76
2021/12/17 14:12:58;;;;;;;6.13;3.90;;;;;;;6.96;100.00;104239.06;5075957;28;20029;-76